createdAt,value
2022-08-09T00:04:08.481Z,1.63
2022-08-09T00:09:16.931Z,1.88
2022-08-09T00:14:36.621Z,1.65
2022-08-09T00:19:40.360Z,1.88
2022-08-09T00:24:41.964Z,1.58
2022-08-09T00:30:25.368Z,1.70
2022-08-09T00:35:06.318Z,2.05
2022-08-09T00:40:16.801Z,1.60
2022-08-09T00:45:20.231Z,1.75
2022-08-09T00:50:26.330Z,1.48
2022-08-09T00:56:04.026Z,1.52
2022-08-09T01:00:54.605Z,1.38
2022-08-09T01:06:17.987Z,1.60
2022-08-09T01:11:53.217Z,1.52
2022-08-09T01:17:04.409Z,1.85
2022-08-09T01:23:01.641Z,1.67
2022-08-09T01:28:05.511Z,1.80
2022-08-09T01:33:09.964Z,2.20
2022-08-09T01:38:19.697Z,2.10
2022-08-09T01:43:25.004Z,2.22
2022-08-09T01:48:31.608Z,2.28
2022-08-09T01:53:41.354Z,2.80
2022-08-09T01:58:49.072Z,2.50
2022-08-09T02:03:53.420Z,2.30
2022-08-09T02:08:58.610Z,2.33
2022-08-09T02:14:07.155Z,2.92
2022-08-09T02:19:10.230Z,2.78
2022-08-09T02:24:25.734Z,2.70
2022-08-09T02:29:33.618Z,2.72
2022-08-09T02:34:41.466Z,2.83
2022-08-09T02:40:09.388Z,2.50
2022-08-09T02:45:21.269Z,3.20
2022-08-09T02:50:36.477Z,3.33
2022-08-09T02:55:57.768Z,3.75
2022-08-09T03:01:04.251Z,3.88
2022-08-09T03:06:14.612Z,4.22
2022-08-09T03:12:04.667Z,4.35
2022-08-09T03:16:47.384Z,3.25
2022-08-09T03:21:51.501Z,4.13
2022-08-09T03:26:54.041Z,4.45
2022-08-09T03:32:00.413Z,5.20
2022-08-09T03:37:54.571Z,4.68
2022-08-09T03:42:24.314Z,4.65
2022-08-09T03:47:30.741Z,4.40
2022-08-09T03:52:42.570Z,4.57
2022-08-09T03:57:44.657Z,4.82
2022-08-09T04:02:59.418Z,4.03
2022-08-09T04:08:02.024Z,5.65
2022-08-09T04:13:11.443Z,4.65
2022-08-09T04:18:17.890Z,5.18
2022-08-09T04:23:24.321Z,4.90
2022-08-09T04:28:31.424Z,3.90
2022-08-09T04:33:53.049Z,4.07
2022-08-09T04:39:01.526Z,3.65
2022-08-09T04:44:06.536Z,3.53
2022-08-09T04:49:10.910Z,3.10
2022-08-09T04:54:16.443Z,2.78
2022-08-09T04:59:18.042Z,3.13
2022-08-09T05:04:31.062Z,2.93
2022-08-09T05:09:45.301Z,2.25
2022-08-09T05:14:51.722Z,2.00
2022-08-09T05:19:57.082Z,2.67
2022-08-09T05:24:59.880Z,2.10
2022-08-09T05:30:04.865Z,2.20
2022-08-09T05:35:08.864Z,3.00
2022-08-09T05:40:11.491Z,2.15
2022-08-09T05:45:14.315Z,2.30
2022-08-09T05:50:25.347Z,3.15
2022-08-09T05:55:37.864Z,2.92
2022-08-09T06:00:40.065Z,2.95
2022-08-09T06:05:57.122Z,2.78
2022-08-09T06:11:17.320Z,2.88
2022-08-09T06:16:19.508Z,3.17
2022-08-09T06:21:21.740Z,2.58
2022-08-09T06:26:28.658Z,2.65
2022-08-09T06:32:08.781Z,2.13
2022-08-09T06:37:01.404Z,2.13
2022-08-09T06:42:08.831Z,2.70
2022-08-09T06:47:13.283Z,2.35
2022-08-09T06:52:17.629Z,1.77
2022-08-09T06:57:19.811Z,1.83
2022-08-09T07:02:41.567Z,1.80
2022-08-09T07:07:59.661Z,1.60
2022-08-09T07:13:05.385Z,1.67
2022-08-09T07:18:24.345Z,1.58
2022-08-09T07:23:27.992Z,1.90
2022-08-09T07:28:37.927Z,1.42
2022-08-09T07:33:59.902Z,1.30
2022-08-09T07:39:02.408Z,1.30
2022-08-09T07:44:04.737Z,1.50
2022-08-09T07:49:06.406Z,1.50
2022-08-09T07:54:09.922Z,1.10
2022-08-09T07:59:14.024Z,1.10
2022-08-09T08:04:31.523Z,1.10
2022-08-09T08:09:42.989Z,1.38
2022-08-09T08:14:53.583Z,1.30
2022-08-09T08:19:55.171Z,1.00
2022-08-09T08:24:58.135Z,1.13
2022-08-09T08:30:03.585Z,1.20
2022-08-09T08:35:06.190Z,0.70
2022-08-09T08:40:08.460Z,1.00
2022-08-09T08:45:13.802Z,0.80
2022-08-09T08:50:18.261Z,0.70
2022-08-09T08:55:23.530Z,0.80
2022-08-09T09:00:34.379Z,0.70
2022-08-09T09:06:01.087Z,0.60
2022-08-09T09:11:05.513Z,0.70
2022-08-09T09:16:09.161Z,0.80
2022-08-09T09:21:11.416Z,1.00
2022-08-09T09:26:15.456Z,0.80
2022-08-09T09:32:04.550Z,0.77
2022-08-09T09:36:53.281Z,1.00
2022-08-09T09:41:57.620Z,1.13
2022-08-09T09:47:16.613Z,1.00
2022-08-09T09:52:36.944Z,0.90
2022-08-09T09:58:04.139Z,0.80
2022-08-09T10:03:11.462Z,0.90
2022-08-09T10:08:27.892Z,0.80
2022-08-09T10:13:43.552Z,1.00
2022-08-09T10:18:54.398Z,0.80
2022-08-09T10:24:01.416Z,0.80
2022-08-09T10:29:31.359Z,0.65
2022-08-09T10:34:33.950Z,0.90
2022-08-09T10:39:49.141Z,0.77
2022-08-09T10:45:02.319Z,1.02
2022-08-09T10:50:17.344Z,0.80
2022-08-09T10:55:49.400Z,0.98
2022-08-09T11:03:02.962Z,0.98
2022-08-09T11:06:19.542Z,1.00
2022-08-09T11:11:23.621Z,0.70
2022-08-09T11:16:36.246Z,0.95
2022-08-09T11:22:04.897Z,0.90
2022-08-09T11:28:02.775Z,0.82
2022-08-09T11:33:07.266Z,1.30
2022-08-09T11:43:27.027Z,0.90
2022-08-09T11:48:48.508Z,1.17
2022-08-09T11:54:12.778Z,1.00
2022-08-09T11:59:34.028Z,1.27
2022-08-09T12:04:37.546Z,0.80
2022-08-09T12:09:40.020Z,1.05
2022-08-09T12:15:04.263Z,0.85
2022-08-09T12:20:22.790Z,0.90
2022-08-09T12:25:37.140Z,1.05
2022-08-09T12:30:40.401Z,0.90
2022-08-09T12:35:43.103Z,1.13
2022-08-09T12:40:46.716Z,0.93
2022-08-09T12:45:59.624Z,1.10
2022-08-09T12:51:04.045Z,1.15
2022-08-09T12:56:43.939Z,1.00
2022-08-09T13:01:34.924Z,1.00
2022-08-09T13:06:45.288Z,1.00
2022-08-09T13:11:49.671Z,1.15
2022-08-09T13:16:53.947Z,0.82
2022-08-09T13:22:36.146Z,0.80
2022-08-09T13:27:39.462Z,0.80
2022-08-09T13:32:48.565Z,0.95
2022-08-09T13:37:52.967Z,1.00
2022-08-09T13:42:56.862Z,1.08
2022-08-09T13:47:59.296Z,1.17
2022-08-09T13:53:00.981Z,1.20
2022-08-09T13:58:02.984Z,1.17
2022-08-09T14:04:01.907Z,0.93
2022-08-09T14:08:32.328Z,0.90
2022-08-09T14:14:22.255Z,1.00
2022-08-09T14:18:57.130Z,1.30
2022-08-09T14:24:01.544Z,0.85
2022-08-09T14:29:25.802Z,1.08
2022-08-09T14:34:36.531Z,1.27
2022-08-09T14:39:46.776Z,1.30
2022-08-09T14:45:00.076Z,1.00
2022-08-09T14:50:03.958Z,0.90
2022-08-09T14:55:07.012Z,0.90
2022-08-09T15:00:10.456Z,0.90
2022-08-09T15:05:12.344Z,0.95
2022-08-09T15:15:20.130Z,1.02
2022-08-09T15:21:56.919Z,1.08
2022-08-09T15:25:45.268Z,0.90
2022-08-09T15:30:59.794Z,0.90
2022-08-09T15:36:08.724Z,1.00
2022-08-09T15:41:10.714Z,1.00
2022-08-09T15:46:32.211Z,1.08
2022-08-09T15:52:02.726Z,0.82
2022-08-09T15:56:58.832Z,1.00
2022-08-09T16:02:00.639Z,1.00
2022-08-09T16:07:02.464Z,0.95
2022-08-09T16:12:04.548Z,1.45
2022-08-09T16:17:06.239Z,0.85
2022-08-09T16:22:14.745Z,1.20
2022-08-09T16:27:17.724Z,1.10
2022-08-09T16:32:33.852Z,1.25
2022-08-09T16:37:54.409Z,1.10
2022-08-09T16:42:59.126Z,1.00
2022-08-09T16:48:41.276Z,1.08
2022-08-09T16:53:22.553Z,1.20
2022-08-09T16:58:28.484Z,0.98
2022-08-09T17:03:37.458Z,1.08
2022-08-09T17:09:00.234Z,1.20
2022-08-09T17:14:02.446Z,1.08
2022-08-09T17:19:05.280Z,0.90
2022-08-09T17:24:27.709Z,0.90
2022-08-09T17:29:31.626Z,0.90
2022-08-09T17:35:01.671Z,0.90
2022-08-09T17:39:55.960Z,1.10
2022-08-09T17:44:57.774Z,0.73
2022-08-09T17:50:09.628Z,1.10
2022-08-09T17:55:15.879Z,1.40
2022-08-09T18:00:18.583Z,1.40
2022-08-09T18:05:43.311Z,1.27
2022-08-09T18:10:46.260Z,1.52
2022-08-09T18:16:08.839Z,1.10
2022-08-09T18:21:23.244Z,1.40
2022-08-09T18:26:26.212Z,1.30
2022-08-09T18:31:51.363Z,1.25
2022-08-09T18:36:50.368Z,1.60
2022-08-09T18:41:55.826Z,1.42
2022-08-09T18:47:07.551Z,1.40
2022-08-09T18:52:12.856Z,1.20
2022-08-09T18:57:15.583Z,1.30
2022-08-09T19:02:18.417Z,2.13
2022-08-09T19:07:20.796Z,1.63
2022-08-09T19:12:24.383Z,1.80
2022-08-09T19:17:31.265Z,1.73
2022-08-09T19:22:41.313Z,1.50
2022-08-09T19:27:55.969Z,1.75
2022-08-09T19:32:58.202Z,1.58
2022-08-09T19:38:00.901Z,2.08
2022-08-09T19:43:05.241Z,1.88
2022-08-09T19:48:07.387Z,1.80
2022-08-09T19:53:12.332Z,1.73
2022-08-09T19:58:16.722Z,1.58
2022-08-09T20:04:11.316Z,1.83
2022-08-09T20:08:41.065Z,1.55
2022-08-09T20:13:53.990Z,1.90
2022-08-09T20:19:42.481Z,1.88
2022-08-09T20:24:29.168Z,2.53
2022-08-09T20:29:37.830Z,2.08
2022-08-09T20:34:40.096Z,2.17
2022-08-09T20:40:16.392Z,1.70
2022-08-09T20:46:01.453Z,2.00
2022-08-09T20:50:47.602Z,1.50
2022-08-09T20:56:02.220Z,1.60
2022-08-09T21:01:33.247Z,1.63
2022-08-09T21:06:27.974Z,1.80
2022-08-09T21:16:55.028Z,1.50
2022-08-09T21:21:57.936Z,1.80
2022-08-09T21:26:59.630Z,1.70
2022-08-09T21:32:01.231Z,1.70
2022-08-09T21:37:18.302Z,2.08
2022-08-09T21:42:28.395Z,1.70
2022-08-09T21:47:30.520Z,1.73
2022-08-09T21:52:33.193Z,1.50
2022-08-09T21:57:38.713Z,1.88
2022-08-09T22:03:00.888Z,1.88
2022-08-09T22:08:03.617Z,1.77
2022-08-09T22:13:07.306Z,2.10
2022-08-09T22:18:12.319Z,1.48
2022-08-09T22:23:14.222Z,1.95
2022-08-09T22:28:21.057Z,1.80
2022-08-09T22:33:48.489Z,1.75
2022-08-09T22:38:50.999Z,1.80
2022-08-09T22:44:02.575Z,1.60
2022-08-09T22:49:10.310Z,1.52
2022-08-09T22:54:12.453Z,1.70
2022-08-09T22:59:57.988Z,2.00
2022-08-09T23:04:38.338Z,2.10
2022-08-09T23:09:40.100Z,1.92
2022-08-09T23:14:42.922Z,1.90
2022-08-09T23:20:00.895Z,1.83
2022-08-09T23:25:06.897Z,1.80
2022-08-09T23:30:08.856Z,1.85
2022-08-09T23:35:10.498Z,2.10
2022-08-09T23:40:12.737Z,2.03
2022-08-09T23:45:37.341Z,2.03
2022-08-09T23:50:36.173Z,1.60
2022-08-09T23:55:38.121Z,2.55
